Alamo, CA

11:34 PM PDT on September 22, 2014 (GMT -0700)
Alamo | Change Station
CLOSE
Current Station
Personal Weather Station
Location: Alamo, CA
Elevation: 318 ft
Nearby Weather Stations

Elev 318 ft 37.85 °N, 122.02 °W | Updated 11 minutes ago

Clear
Clear
61.3 °F
Feels Like 61.3 °F
N
0.0
Wind Variable Wind from WSW

Today
High -- | Low -- °F
--% Chance of Precip.
Yesterday
High -- | Low -- °F
Precip. -- in
6:55 AM 7:04 PM
Waning Crescent, 1% visible
Pressure 29.94 in
Visibility 10.0 miles
Clouds Clear
Dew Point 54 °F
Humidity 78%
Rainfall 0.00 in
Snow Depth 0 in , 0 in , 1 in
UV 0 out of 12
Pollen 3.70 out of 12
Ozone Good
PM2.5 Good
Flu Activity Not available.
METAR KCCR 230553Z 26005KT 10SM CLR 18/14 A2997 RMK AO2 SLP136 T01780139 10272 20178 53011

More Conditions Fewer Conditions

Pressure 29.94 in
Visibility 10.0 miles
Clouds Clear
Dew Point 54 °F
Humidity 78%
Rainfall 0.00 in
Snow Depth 0 in , 0 in , 1 in
UV 0 out of 12
Pollen 3.70 out of 12
Ozone Good
PM2.5 Good
Flu Activity Not available.
METAR KCCR 230553Z 26005KT 10SM CLR 18/14 A2997 RMK AO2 SLP136 T01780139 10272 20178 53011

More Conditions Fewer Conditions

10-Day Weather Forecast

Almanac

Astronomy

Sep. 22, 2014 Rise Set
Actual Time 6:55 AM PDT 7:04 PM PDT
Civil Twilight 6:29 AM PDT 7:31 PM PDT
Nautical Twilight 5:59 AM PDT 8:01 PM PDT
Astronomical Twilight 5:27 AM PDT 8:32 PM PDT
Moon 5:30 AM PDT (9/22) 6:14 PM PDT (9/22)
Length of Visible Light 13h 01m
Length of Day
12h 08m
Tomorrow will be 2m 25s shorter.
Waning Crescent, 1% of the Moon is Illuminated
Sep 23
Waning Crescent
Sep 24
New
Oct 1
First Quarter
Oct 8
Full
Oct 15
Last Quarter

Community

WunderPhotos

Upload Photos

1,755,608 photos uploaded!

Nearby

Air Quality

  Air Quality AQ Index Pollutant
Yesterday Good
OZONE
Yesterday Good
PM2.5
Current Good
PM2.5
Current Good
OZONE
Monday Good
OZONE
Tuesday Good
OZONE
Wednesday Good
OZONE
Thursday Good
OZONE
Friday Good
OZONE
Saturday Good
OZONE

Snow Depth

Station Depth Elevation
Heavenly Valley 0 in 8850 ft
Monitor Pass 0 in 8350 ft
Echo Peak 1 in 7800 ft
Summit Meadow 0 in 9122 ft
Spratt Creek 1 in 6200 ft

Earthquake Activity

City Distance Mag. Time & Date
Yountville, California 38 miles 2.6 1:17 PM PDT
2014-09-21
Minimum magnitude displayed is 2.5.

Coastal Water Temperatures

Place Temperature
No Stations Reporting

Nearby Weather Stations